Time;durP1;ratioP1;P1;durP2;ratioP2;P2;SDS_P1;SDS_P2;PMS_P1;PMS_P2;Temp;Humidity;BMP_temperature;BMP_pressure;BME280_temperature;BME280_humidity;BME280_pressure;Samples;Min_cycle;Max_cycle;Signal;HPM_P1;HPM_P2
2022/08/24 00:02:21;;;;;;;26.25;12.02;;;;;;;;;;4989105;28;20450;-62
2022/08/24 00:04:47;;;;;;;31.10;12.73;;;;;;;;;;4989529;28;20068;-62
2022/08/24 00:07:14;;;;;;;35.13;13.70;;;;;;;;;;4989053;28;20107;-62
2022/08/24 00:09:40;;;;;;;21.40;11.85;;;;;;;;;;4989151;28;20376;-62
2022/08/24 00:12:06;;;;;;;26.02;11.95;;;;;;;;;;4989385;28;20524;-63
2022/08/24 00:14:31;;;;;;;24.88;11.52;;;;;;;;;;4991163;28;20412;-62
2022/08/24 00:16:57;;;;;;;29.00;12.48;;;;;;;;;;4988823;28;20037;-62
2022/08/24 00:19:24;;;;;;;28.67;12.68;;;;;;;;;;4988890;28;20371;-63
2022/08/24 00:21:50;;;;;;;27.70;12.43;;;;;;;;;;4988950;28;20438;-62
2022/08/24 00:24:16;;;;;;;25.20;12.18;;;;;;;;;;4988821;28;20539;-62
2022/08/24 00:26:41;;;;;;;25.92;12.43;;;;;;;;;;4988612;28;20053;-62
2022/08/24 00:29:07;;;;;;;24.40;12.32;;;;;;;;;;4988683;28;20358;-63
2022/08/24 00:31:32;;;;;;;25.40;11.02;;;;;;;;;;4990478;28;20056;-63
2022/08/24 00:33:58;;;;;;;25.45;11.43;;;;;;;;;;4988930;28;20428;-62
2022/08/24 00:36:24;;;;;;;32.35;12.38;;;;;;;;;;4989119;28;20025;-62
2022/08/24 00:38:49;;;;;;;28.88;12.25;;;;;;;;;;4988881;28;20431;-62
2022/08/24 00:41:16;;;;;;;21.50;11.13;;;;;;;;;;4988506;28;20505;-62
2022/08/24 00:44:00;;;;;;;23.13;10.98;;;;;;;;;;4988463;28;20392;-62
2022/08/24 00:46:25;;;;;;;26.33;11.90;;;;;;;;;;4988541;28;20068;-63
2022/08/24 00:48:59;;;;;;;22.95;11.50;;;;;;;;;;4988366;28;20116;-62
2022/08/24 00:51:50;;;;;;;22.13;10.98;;;;;;;;;;4986788;28;20325;-62
2022/08/24 00:54:16;;;;;;;25.20;10.88;;;;;;;;;;4989648;28;20033;-62
2022/08/24 00:56:45;;;;;;;31.13;11.52;;;;;;;;;;4988082;28;20091;-62
2022/08/24 00:59:21;;;;;;;27.65;11.90;;;;;;;;;;4986584;28;20036;-62
2022/08/24 01:01:47;;;;;;;23.63;11.50;;;;;;;;;;4978889;28;20021;-62
2022/08/24 01:04:20;;;;;;;23.67;11.75;;;;;;;;;;4974790;28;20566;-62
2022/08/24 01:06:48;;;;;;;22.25;10.35;;;;;;;;;;4966960;28;20435;-62
2022/08/24 01:09:14;;;;;;;23.63;11.23;;;;;;;;;;4968157;28;20029;-62
2022/08/24 01:11:40;;;;;;;19.52;11.32;;;;;;;;;;4968206;28;20451;-63
2022/08/24 01:14:06;;;;;;;23.67;11.10;;;;;;;;;;4966541;28;20444;-62
2022/08/24 01:19:37;;;;;;;27.10;12.20;;;;;;;;;;4970013;28;20459;-62
2022/08/24 01:22:40;;;;;;;22.33;11.07;;;;;;;;;;4968177;28;20044;-63
2022/08/24 01:25:06;;;;;;;25.77;11.93;;;;;;;;;;4968201;28;20334;-62
2022/08/24 01:27:34;;;;;;;23.23;11.02;;;;;;;;;;4967987;28;20415;-62
2022/08/24 01:30:01;;;;;;;23.70;10.60;;;;;;;;;;4968007;28;20456;-62
2022/08/24 01:32:29;;;;;;;21.33;11.27;;;;;;;;;;4966407;28;20462;-62
2022/08/24 01:34:55;;;;;;;22.65;10.98;;;;;;;;;;4969084;28;20542;-62
2022/08/24 01:37:21;;;;;;;23.45;10.80;;;;;;;;;;4970967;28;20356;-62
2022/08/24 01:39:48;;;;;;;28.02;12.05;;;;;;;;;;4969186;28;20473;-63
2022/08/24 01:42:13;;;;;;;23.05;10.98;;;;;;;;;;4972058;28;20344;-62
2022/08/24 01:44:40;;;;;;;20.17;9.95;;;;;;;;;;4972318;28;20048;-62
2022/08/24 01:47:08;;;;;;;20.98;10.68;;;;;;;;;;4971914;28;20518;-62
2022/08/24 01:49:40;;;;;;;23.13;11.23;;;;;;;;;;4972452;28;20452;-62
2022/08/24 01:52:06;;;;;;;25.38;11.13;;;;;;;;;;4971880;28;20423;-62
2022/08/24 01:54:32;;;;;;;22.05;11.00;;;;;;;;;;4972061;28;20326;-63
2022/08/24 01:56:58;;;;;;;22.98;10.90;;;;;;;;;;4971719;28;20405;-62
2022/08/24 01:59:24;;;;;;;16.45;9.85;;;;;;;;;;4971710;28;20574;-62
2022/08/24 02:01:54;;;;;;;18.83;10.13;;;;;;;;;;4973578;28;20381;-62
2022/08/24 02:04:20;;;;;;;19.67;10.10;;;;;;;;;;4970382;28;20364;-62
2022/08/24 02:06:45;;;;;;;16.20;9.38;;;;;;;;;;4971488;28;20412;-62
2022/08/24 02:09:12;;;;;;;21.80;10.32;;;;;;;;;;4973296;28;20325;-62
2022/08/24 02:11:38;;;;;;;15.07;8.88;;;;;;;;;;4971901;28;20343;-63
2022/08/24 02:14:04;;;;;;;21.45;10.45;;;;;;;;;;4971558;28;20403;-62
2022/08/24 02:16:30;;;;;;;17.98;9.05;;;;;;;;;;4972260;28;20383;-62
2022/08/24 02:18:56;;;;;;;18.40;9.90;;;;;;;;;;4972256;28;20356;-62
2022/08/24 02:21:23;;;;;;;16.15;9.52;;;;;;;;;;4971596;28;20125;-62
2022/08/24 02:23:48;;;;;;;20.40;10.27;;;;;;;;;;4971419;28;20096;-63
2022/08/24 02:26:13;;;;;;;17.55;9.77;;;;;;;;;;4972449;28;20444;-62
2022/08/24 02:28:39;;;;;;;16.63;9.27;;;;;;;;;;4971257;28;20344;-63
2022/08/24 02:31:06;;;;;;;15.52;8.80;;;;;;;;;;4971329;28;20415;-62
2022/08/24 02:33:33;;;;;;;16.80;9.25;;;;;;;;;;4971273;28;20026;-62
2022/08/24 02:35:59;;;;;;;17.52;9.50;;;;;;;;;;4971226;28;20459;-62
2022/08/24 02:38:24;;;;;;;18.20;9.50;;;;;;;;;;4973215;28;20424;-62
2022/08/24 02:40:50;;;;;;;15.43;9.80;;;;;;;;;;4972219;28;20389;-62
2022/08/24 02:43:15;;;;;;;14.40;9.60;;;;;;;;;;4971211;28;20455;-62
2022/08/24 02:45:43;;;;;;;21.17;9.88;;;;;;;;;;4970687;28;20534;-63
2022/08/24 02:48:09;;;;;;;17.17;9.40;;;;;;;;;;4971845;28;20033;-62
2022/08/24 02:50:44;;;;;;;15.10;9.13;;;;;;;;;;4971172;28;20486;-62
2022/08/24 02:53:12;;;;;;;18.80;9.68;;;;;;;;;;4970924;28;20472;-62
2022/08/24 02:55:40;;;;;;;18.50;9.75;;;;;;;;;;4970871;28;20502;-62
2022/08/24 02:58:06;;;;;;;17.63;9.52;;;;;;;;;;4970780;28;20444;-62
2022/08/24 03:00:31;;;;;;;21.38;9.45;;;;;;;;;;4970791;28;20440;-63
2022/08/24 03:02:57;;;;;;;16.80;8.88;;;;;;;;;;4970639;28;20317;-62
2022/08/24 03:05:22;;;;;;;17.55;9.35;;;;;;;;;;4970633;28;20451;-62
2022/08/24 03:07:48;;;;;;;17.95;9.82;;;;;;;;;;4970630;28;20029;-63
2022/08/24 03:10:13;;;;;;;15.77;8.63;;;;;;;;;;4970738;28;20452;-62
2022/08/24 03:12:39;;;;;;;16.67;8.95;;;;;;;;;;4970680;28;20021;-62
2022/08/24 03:15:06;;;;;;;24.38;8.77;;;;;;;;;;4972423;28;20436;-63
2022/08/24 03:17:32;;;;;;;14.57;7.97;;;;;;;;;;4971589;28;20352;-62
2022/08/24 03:19:59;;;;;;;19.05;9.27;;;;;;;;;;4970597;28;20352;-62
2022/08/24 03:22:25;;;;;;;15.50;9.02;;;;;;;;;;4970246;28;20029;-63
2022/08/24 03:24:51;;;;;;;21.35;10.02;;;;;;;;;;4971768;28;20344;-62
2022/08/24 03:27:16;;;;;;;18.08;9.55;;;;;;;;;;4970393;28;20348;-63
2022/08/24 03:29:42;;;;;;;18.05;9.73;;;;;;;;;;4970162;28;20468;-62
2022/08/24 03:32:07;;;;;;;13.52;7.97;;;;;;;;;;4971178;28;20339;-62
2022/08/24 03:34:33;;;;;;;15.02;8.43;;;;;;;;;;4970412;28;20056;-62
2022/08/24 03:36:58;;;;;;;15.75;8.65;;;;;;;;;;4970219;28;20416;-62
2022/08/24 03:39:23;;;;;;;16.20;8.75;;;;;;;;;;4970655;28;20456;-62
2022/08/24 03:41:49;;;;;;;16.52;8.43;;;;;;;;;;4970152;28;20390;-64
2022/08/24 03:44:14;;;;;;;14.27;8.02;;;;;;;;;;4971058;28;20364;-62
2022/08/24 03:46:40;;;;;;;18.90;8.82;;;;;;;;;;4969447;28;20482;-63
2022/08/24 03:49:08;;;;;;;15.73;9.32;;;;;;;;;;4969970;28;20395;-62
2022/08/24 03:51:35;;;;;;;14.20;8.48;;;;;;;;;;4969860;28;20364;-62
2022/08/24 03:54:01;;;;;;;17.73;9.07;;;;;;;;;;4971161;28;20337;-62
2022/08/24 03:56:27;;;;;;;21.85;10.90;;;;;;;;;;4971161;28;20464;-62
2022/08/24 03:58:52;;;;;;;15.57;9.23;;;;;;;;;;4971098;28;20389;-62
2022/08/24 04:01:18;;;;;;;18.98;9.93;;;;;;;;;;4969789;28;20516;-62
2022/08/24 04:03:45;;;;;;;17.15;8.75;;;;;;;;;;4969877;28;20424;-63
2022/08/24 04:06:13;;;;;;;19.52;9.93;;;;;;;;;;4968077;28;20056;-62
2022/08/24 04:08:40;;;;;;;16.80;8.82;;;;;;;;;;4969608;28;20351;-62
2022/08/24 04:11:09;;;;;;;23.88;9.23;;;;;;;;;;4970660;28;20022;-62
2022/08/24 04:13:34;;;;;;;22.92;9.57;;;;;;;;;;4969594;28;20422;-62
2022/08/24 04:16:05;;;;;;;17.77;8.77;;;;;;;;;;4969390;28;20051;-62
2022/08/24 04:18:31;;;;;;;14.98;8.98;;;;;;;;;;4969329;28;20448;-62
2022/08/24 04:20:56;;;;;;;11.85;7.75;;;;;;;;;;4969997;28;20364;-62
2022/08/24 04:23:22;;;;;;;19.13;8.70;;;;;;;;;;4969141;28;20383;-63
2022/08/24 04:25:48;;;;;;;14.70;8.40;;;;;;;;;;4969853;28;20034;-62
2022/08/24 04:28:17;;;;;;;16.02;8.40;;;;;;;;;;4969092;28;20511;-62
2022/08/24 04:30:44;;;;;;;18.92;9.32;;;;;;;;;;4969319;28;20116;-62
2022/08/24 04:33:11;;;;;;;15.00;8.65;;;;;;;;;;4970581;28;20344;-62
2022/08/24 04:35:40;;;;;;;14.45;8.48;;;;;;;;;;4969872;28;20336;-63
2022/08/24 04:38:07;;;;;;;15.40;8.35;;;;;;;;;;4969752;28;20436;-62
2022/08/24 04:40:33;;;;;;;18.75;9.05;;;;;;;;;;4968996;28;20352;-62
2022/08/24 04:42:59;;;;;;;13.55;7.90;;;;;;;;;;4968696;28;20340;-63
2022/08/24 04:45:25;;;;;;;19.08;8.40;;;;;;;;;;4969280;28;20348;-63
2022/08/24 04:47:51;;;;;;;20.23;8.82;;;;;;;;;;4968915;28;20471;-62
2022/08/24 04:50:18;;;;;;;19.42;8.77;;;;;;;;;;4969030;28;20460;-62
2022/08/24 04:52:44;;;;;;;14.52;8.82;;;;;;;;;;4969278;28;20344;-62
2022/08/24 04:55:09;;;;;;;14.63;8.15;;;;;;;;;;4968735;28;20433;-63
2022/08/24 04:57:35;;;;;;;16.58;8.85;;;;;;;;;;4968715;28;20365;-62
2022/08/24 05:00:01;;;;;;;15.75;8.02;;;;;;;;;;4969260;28;20092;-62
2022/08/24 05:02:27;;;;;;;15.32;9.40;;;;;;;;;;4968904;28;20472;-62
2022/08/24 05:04:54;;;;;;;14.10;7.95;;;;;;;;;;4969895;28;20436;-62
2022/08/24 05:07:19;;;;;;;16.23;8.35;;;;;;;;;;4969119;28;20380;-62
2022/08/24 05:09:44;;;;;;;15.32;8.43;;;;;;;;;;4969036;28;20363;-63
2022/08/24 05:12:10;;;;;;;14.85;7.40;;;;;;;;;;4969650;28;20389;-62
2022/08/24 05:14:36;;;;;;;12.40;7.35;;;;;;;;;;4968319;28;20452;-63
2022/08/24 05:17:01;;;;;;;16.52;8.43;;;;;;;;;;4968406;28;20396;-62
2022/08/24 05:19:27;;;;;;;15.18;9.32;;;;;;;;;;4967165;28;20341;-63
2022/08/24 05:21:52;;;;;;;19.00;8.82;;;;;;;;;;4968427;28;20503;-62
2022/08/24 05:24:18;;;;;;;16.08;8.85;;;;;;;;;;4969872;28;20451;-63
2022/08/24 05:26:44;;;;;;;16.02;8.27;;;;;;;;;;4970730;28;20116;-62
2022/08/24 05:29:10;;;;;;;16.90;8.82;;;;;;;;;;4967410;28;20460;-63
2022/08/24 05:31:35;;;;;;;14.45;7.15;;;;;;;;;;4969533;28;20413;-62
2022/08/24 05:34:02;;;;;;;20.33;9.18;;;;;;;;;;4970388;28;20410;-62
2022/08/24 05:36:29;;;;;;;14.05;8.13;;;;;;;;;;4968324;28;20111;-63
2022/08/24 05:38:56;;;;;;;13.35;8.55;;;;;;;;;;4966875;28;20368;-62
2022/08/24 05:41:22;;;;;;;12.90;8.18;;;;;;;;;;4968341;28;20372;-62
2022/08/24 05:43:48;;;;;;;15.40;8.63;;;;;;;;;;4968209;28;20478;-62
2022/08/24 05:46:14;;;;;;;14.80;8.65;;;;;;;;;;4967705;28;20049;-62
2022/08/24 05:48:40;;;;;;;16.50;9.05;;;;;;;;;;4968450;28;20448;-62
2022/08/24 05:51:06;;;;;;;18.40;8.32;;;;;;;;;;4968133;28;20112;-62
2022/08/24 05:53:32;;;;;;;13.32;8.18;;;;;;;;;;4968067;28;20400;-63
2022/08/24 05:56:01;;;;;;;16.83;9.30;;;;;;;;;;4967378;28;20037;-65
2022/08/24 05:58:26;;;;;;;16.60;8.10;;;;;;;;;;4983290;28;20452;-62
2022/08/24 06:00:52;;;;;;;13.07;8.43;;;;;;;;;;4968200;28;20428;-62
2022/08/24 06:03:17;;;;;;;16.73;8.98;;;;;;;;;;4969303;28;20467;-62
2022/08/24 06:05:43;;;;;;;18.75;8.93;;;;;;;;;;4968384;28;20457;-62
2022/08/24 06:08:09;;;;;;;22.27;8.20;;;;;;;;;;4967962;28;20449;-62
2022/08/24 06:10:43;;;;;;;15.18;8.63;;;;;;;;;;4968047;28;20025;-63
2022/08/24 06:13:09;;;;;;;13.73;7.05;;;;;;;;;;4969442;28;20340;-63
2022/08/24 06:15:36;;;;;;;15.05;8.10;;;;;;;;;;4967953;28;20448;-63
2022/08/24 06:18:03;;;;;;;15.63;8.30;;;;;;;;;;4967807;28;20432;-63
2022/08/24 06:20:29;;;;;;;18.13;8.02;;;;;;;;;;4968310;28;20424;-62
2022/08/24 06:22:54;;;;;;;13.88;7.10;;;;;;;;;;4968242;28;20339;-62
2022/08/24 06:28:03;;;;;;;12.45;6.35;;;;;;;;;;4972609;28;20052;-62
2022/08/24 06:30:28;;;;;;;19.17;9.27;;;;;;;;;;4972267;28;20436;-63
2022/08/24 06:32:57;;;;;;;15.68;7.15;;;;;;;;;;4971112;28;20356;-62
2022/08/24 06:35:23;;;;;;;15.85;7.53;;;;;;;;;;4970863;28;20391;-62
2022/08/24 06:37:48;;;;;;;14.63;7.72;;;;;;;;;;4971760;28;20025;-62
2022/08/24 06:40:14;;;;;;;21.45;8.80;;;;;;;;;;4971153;28;20511;-63
2022/08/24 06:42:39;;;;;;;13.80;7.95;;;;;;;;;;4971477;28;20048;-63
2022/08/24 06:45:05;;;;;;;15.15;7.80;;;;;;;;;;4971436;28;20450;-62
2022/08/24 06:47:30;;;;;;;17.83;7.93;;;;;;;;;;4971382;28;20128;-63
2022/08/24 06:49:57;;;;;;;14.63;7.53;;;;;;;;;;4971680;28;20486;-62
2022/08/24 06:52:23;;;;;;;17.23;7.40;;;;;;;;;;4971509;28;20428;-63
2022/08/24 06:54:49;;;;;;;12.55;7.40;;;;;;;;;;4971916;28;20408;-62
2022/08/24 06:57:15;;;;;;;16.17;8.07;;;;;;;;;;4973898;28;20356;-62
2022/08/24 06:59:41;;;;;;;20.08;8.35;;;;;;;;;;4970354;28;20356;-63
2022/08/24 07:02:08;;;;;;;18.80;9.68;;;;;;;;;;4971654;28;20382;-62
2022/08/24 07:04:33;;;;;;;13.75;7.90;;;;;;;;;;4971186;28;20460;-62
2022/08/24 07:06:59;;;;;;;19.83;8.85;;;;;;;;;;4970935;28;20360;-62
2022/08/24 07:09:26;;;;;;;24.90;10.15;;;;;;;;;;4971818;28;20348;-63
2022/08/24 07:11:51;;;;;;;30.90;8.52;;;;;;;;;;4970904;28;20029;-62
2022/08/24 07:14:18;;;;;;;17.30;7.15;;;;;;;;;;4971874;28;20487;-62
2022/08/24 07:16:44;;;;;;;15.15;7.43;;;;;;;;;;4970786;28;20385;-63
2022/08/24 07:19:09;;;;;;;22.88;8.32;;;;;;;;;;4971577;28;20455;-62
2022/08/24 07:21:34;;;;;;;10.15;6.00;;;;;;;;;;4971271;28;20427;-64
2022/08/24 07:24:02;;;;;;;24.92;8.55;;;;;;;;;;4971184;28;20104;-62
2022/08/24 07:26:28;;;;;;;13.07;7.22;;;;;;;;;;4970522;28;20399;-62
2022/08/24 07:29:03;;;;;;;11.80;6.68;;;;;;;;;;4970786;28;20345;-63
2022/08/24 07:31:30;;;;;;;17.27;6.32;;;;;;;;;;4970722;28;20428;-62
2022/08/24 07:33:55;;;;;;;11.02;6.35;;;;;;;;;;4970984;28;20060;-62
2022/08/24 07:36:21;;;;;;;13.80;7.53;;;;;;;;;;4970077;28;20428;-63
2022/08/24 07:38:46;;;;;;;15.57;6.22;;;;;;;;;;4969540;28;20357;-62
2022/08/24 07:41:13;;;;;;;10.45;5.78;;;;;;;;;;4970243;28;20340;-62
2022/08/24 07:43:40;;;;;;;12.55;6.50;;;;;;;;;;4970362;28;20090;-62
2022/08/24 07:46:06;;;;;;;10.00;5.53;;;;;;;;;;4971086;28;20334;-62
2022/08/24 07:48:32;;;;;;;11.63;6.05;;;;;;;;;;4970231;28;20143;-62
2022/08/24 07:51:06;;;;;;;14.60;6.63;;;;;;;;;;4970040;28;20375;-62
2022/08/24 07:53:31;;;;;;;15.30;5.85;;;;;;;;;;4970222;28;20396;-63
2022/08/24 07:55:56;;;;;;;13.70;6.60;;;;;;;;;;4970321;28;20395;-62
2022/08/24 07:58:23;;;;;;;10.05;6.45;;;;;;;;;;4969731;28;20360;-63
2022/08/24 08:00:48;;;;;;;9.00;5.65;;;;;;;;;;4969826;28;20029;-62
2022/08/24 08:03:14;;;;;;;12.48;6.25;;;;;;;;;;4970154;28;20060;-62
2022/08/24 08:05:40;;;;;;;16.38;6.65;;;;;;;;;;4969839;28;20318;-62
2022/08/24 08:08:06;;;;;;;10.05;5.75;;;;;;;;;;4970046;28;20492;-63
2022/08/24 08:10:34;;;;;;;16.35;5.20;;;;;;;;;;4970785;28;20464;-63
2022/08/24 08:13:01;;;;;;;12.75;5.45;;;;;;;;;;4970238;28;20442;-62
2022/08/24 08:15:26;;;;;;;10.82;6.40;;;;;;;;;;4969883;28;20447;-63
2022/08/24 08:17:52;;;;;;;8.93;5.43;;;;;;;;;;4969722;28;20390;-62
2022/08/24 08:20:17;;;;;;;10.18;5.82;;;;;;;;;;4969834;28;20449;-63
2022/08/24 08:25:27;;;;;;;12.20;5.60;;;;;;;;;;4968764;28;20534;-63
2022/08/24 08:27:53;;;;;;;11.80;5.93;;;;;;;;;;4968982;28;20419;-62
2022/08/24 08:30:18;;;;;;;17.77;6.97;;;;;;;;;;4969479;28;20025;-63
2022/08/24 08:32:44;;;;;;;9.68;5.90;;;;;;;;;;4969876;28;20353;-62
2022/08/24 08:35:09;;;;;;;11.38;5.40;;;;;;;;;;4969665;28;20432;-62
2022/08/24 08:37:35;;;;;;;9.23;5.68;;;;;;;;;;4969323;28;20361;-62
2022/08/24 08:40:00;;;;;;;10.40;4.90;;;;;;;;;;4970299;28;20444;-62
2022/08/24 08:42:41;;;;;;;16.80;5.78;;;;;;;;;;4969523;28;20448;-62
2022/08/24 08:45:46;;;;;;;10.27;5.35;;;;;;;;;;4968700;28;20322;-62
2022/08/24 08:48:27;;;;;;;10.30;5.20;;;;;;;;;;4931872;28;20469;-63
2022/08/24 08:51:29;;;;;;;12.40;5.75;;;;;;;;;;4949393;28;20476;-62
2022/08/24 08:54:07;;;;;;;11.02;4.70;;;;;;;;;;4950433;28;20368;-63
2022/08/24 08:57:07;;;;;;;13.60;5.57;;;;;;;;;;4932340;28;20411;-63
2022/08/24 08:59:36;;;;;;;15.30;5.95;;;;;;;;;;4932057;28;20393;-62
2022/08/24 09:02:31;;;;;;;12.82;4.78;;;;;;;;;;4949299;28;20361;-62
2022/08/24 09:05:06;;;;;;;8.13;4.95;;;;;;;;;;4950224;28;20441;-62
2022/08/24 09:07:50;;;;;;;9.30;5.13;;;;;;;;;;4949376;28;20361;-62
2022/08/24 09:10:30;;;;;;;9.48;5.38;;;;;;;;;;4949401;28;20038;-63
2022/08/24 09:13:23;;;;;;;12.43;5.20;;;;;;;;;;4931846;28;20341;-63
2022/08/24 09:16:14;;;;;;;11.15;5.43;;;;;;;;;;4949257;28;20052;-62
2022/08/24 09:19:02;;;;;;;11.55;5.60;;;;;;;;;;4932432;28;20310;-62
2022/08/24 09:22:07;;;;;;;9.05;4.95;;;;;;;;;;4931935;28;20479;-62
2022/08/24 09:24:44;;;;;;;9.45;4.43;;;;;;;;;;4916540;28;20402;-62
2022/08/24 09:27:17;;;;;;;10.70;5.10;;;;;;;;;;4968713;28;20444;-63
2022/08/24 09:30:08;;;;;;;10.98;5.63;;;;;;;;;;4951419;28;20372;-62
2022/08/24 09:33:08;;;;;;;14.20;5.90;;;;;;;;;;4968400;28;20436;-62
2022/08/24 09:35:49;;;;;;;14.95;4.93;;;;;;;;;;4968365;28;20398;-62
2022/08/24 09:38:52;;;;;;;8.00;4.75;;;;;;;;;;4969750;28;20417;-63
2022/08/24 09:41:35;;;;;;;10.20;4.75;;;;;;;;;;4969735;28;20340;-63
2022/08/24 09:44:19;;;;;;;10.77;4.80;;;;;;;;;;4968711;28;20025;-63
2022/08/24 09:46:59;;;;;;;10.55;4.57;;;;;;;;;;4980193;28;20126;-64
2022/08/24 09:49:53;;;;;;;8.70;4.57;;;;;;;;;;4988817;28;20414;-62
2022/08/24 09:52:51;;;;;;;6.93;4.22;;;;;;;;;;4986741;28;20444;-62
2022/08/24 09:55:36;;;;;;;10.65;5.10;;;;;;;;;;4988065;28;20471;-63
2022/08/24 09:58:11;;;;;;;8.05;4.93;;;;;;;;;;4986378;28;20479;-62
2022/08/24 10:00:39;;;;;;;8.43;4.35;;;;;;;;;;4989481;28;20045;-62
2022/08/24 10:03:17;;;;;;;10.65;4.65;;;;;;;;;;4992692;28;20451;-63
2022/08/24 10:06:09;;;;;;;8.77;5.10;;;;;;;;;;4991048;28;20033;-63
2022/08/24 10:08:56;;;;;;;14.07;4.72;;;;;;;;;;4991915;28;20017;-62
2022/08/24 10:11:50;;;;;;;8.63;4.28;;;;;;;;;;4991113;28;20440;-62
2022/08/24 10:14:33;;;;;;;7.60;4.63;;;;;;;;;;4955545;28;20112;-62
2022/08/24 10:17:25;;;;;;;10.65;4.22;;;;;;;;;;4990056;28;20482;-62
2022/08/24 10:20:16;;;;;;;8.63;4.53;;;;;;;;;;4990167;28;20025;-63
2022/08/24 10:23:01;;;;;;;8.65;4.28;;;;;;;;;;4989947;28;20427;-62
2022/08/24 10:25:32;;;;;;;10.45;4.45;;;;;;;;;;4991680;28;20539;-62
2022/08/24 10:28:23;;;;;;;8.52;4.10;;;;;;;;;;4973705;28;20340;-62
2022/08/24 10:31:02;;;;;;;12.10;4.85;;;;;;;;;;4993332;28;20455;-62
2022/08/24 10:33:27;;;;;;;11.52;5.20;;;;;;;;;;4990351;28;20343;-63
2022/08/24 10:36:21;;;;;;;8.40;4.32;;;;;;;;;;4993728;28;20347;-62
2022/08/24 10:45:38;;;;;;;10.95;4.90;;;;;;;;;;4910585;28;20479;-62
2022/08/24 10:48:27;;;;;;;10.73;4.85;;;;;;;;;;4987513;28;20402;-62
2022/08/24 10:50:58;;;;;;;13.52;5.00;;;;;;;;;;4991421;28;20402;-62
2022/08/24 10:53:29;;;;;;;11.65;4.72;;;;;;;;;;4991390;28;20336;-62
2022/08/24 10:56:03;;;;;;;9.80;4.38;;;;;;;;;;4990866;28;20463;-63
2022/08/24 10:58:42;;;;;;;10.80;3.83;;;;;;;;;;4990324;28;20455;-63
2022/08/24 11:01:28;;;;;;;10.70;4.18;;;;;;;;;;4991747;28;20351;-62
2022/08/24 11:04:11;;;;;;;16.38;4.38;;;;;;;;;;4990650;28;20520;-63
2022/08/24 11:06:43;;;;;;;12.82;4.70;;;;;;;;;;4991219;28;20420;-63
2022/08/24 11:09:14;;;;;;;11.65;4.82;;;;;;;;;;4988120;28;20024;-63
2022/08/24 11:11:45;;;;;;;13.88;4.05;;;;;;;;;;4988432;28;20500;-63
2022/08/24 11:14:13;;;;;;;11.25;4.78;;;;;;;;;;4990499;28;20312;-63
2022/08/24 11:16:43;;;;;;;14.30;4.03;;;;;;;;;;4992606;28;20061;-63
2022/08/24 11:19:27;;;;;;;12.23;4.22;;;;;;;;;;4990007;28;20032;-63
2022/08/24 11:21:55;;;;;;;8.32;3.13;;;;;;;;;;4990499;28;20360;-63
2022/08/24 11:24:39;;;;;;;6.72;3.63;;;;;;;;;;4990352;28;20409;-63
2022/08/24 11:27:29;;;;;;;16.35;4.20;;;;;;;;;;4992277;28;20352;-62
2022/08/24 11:30:00;;;;;;;11.95;3.65;;;;;;;;;;4988537;28;20339;-63
2022/08/24 11:32:40;;;;;;;11.35;4.20;;;;;;;;;;4991321;28;20029;-63
2022/08/24 11:35:26;;;;;;;15.00;4.78;;;;;;;;;;4988511;28;20513;-63
2022/08/24 11:38:02;;;;;;;13.15;4.13;;;;;;;;;;4988283;28;20037;-63
2022/08/24 11:40:29;;;;;;;10.10;3.78;;;;;;;;;;4989871;28;20464;-62
2022/08/24 11:43:39;;;;;;;12.23;4.32;;;;;;;;;;4989812;28;20440;-63
2022/08/24 11:46:17;;;;;;;8.98;3.88;;;;;;;;;;4985169;28;20367;-62
2022/08/24 11:49:13;;;;;;;11.25;3.90;;;;;;;;;;4988774;28;20468;-62
2022/08/24 11:51:53;;;;;;;10.23;3.30;;;;;;;;;;4989859;28;20525;-62
2022/08/24 11:54:23;;;;;;;12.30;3.60;;;;;;;;;;4989958;28;20351;-62
2022/08/24 11:56:58;;;;;;;11.45;3.85;;;;;;;;;;4990597;28;20350;-63
2022/08/24 12:00:01;;;;;;;11.60;4.18;;;;;;;;;;4991216;28;20052;-63
2022/08/24 12:02:54;;;;;;;11.40;3.42;;;;;;;;;;4989592;28;20435;-63
2022/08/24 12:05:32;;;;;;;8.45;3.70;;;;;;;;;;4988201;28;20367;-63
2022/08/24 12:08:03;;;;;;;;;;;;;;;;;;4990079;28;20392;-63
2022/08/24 12:10:48;;;;;;;10.82;3.67;;;;;;;;;;4989553;28;19912;-63
2022/08/24 12:13:47;;;;;;;11.93;3.45;;;;;;;;;;4989432;28;20462;-62
2022/08/24 12:16:26;;;;;;;8.50;3.45;;;;;;;;;;4988522;28;20171;-63
2022/08/24 12:19:08;;;;;;;12.63;3.75;;;;;;;;;;4989252;28;20128;-63
2022/08/24 12:21:37;;;;;;;12.25;3.60;;;;;;;;;;4989764;28;20467;-63
2022/08/24 12:24:09;;;;;;;12.95;3.35;;;;;;;;;;4989287;28;20493;-63
2022/08/24 12:26:38;;;;;;;10.65;3.70;;;;;;;;;;4989130;28;20344;-63
2022/08/24 12:29:08;;;;;;;16.25;3.72;;;;;;;;;;4987793;28;20472;-63
2022/08/24 12:31:41;;;;;;;8.95;3.42;;;;;;;;;;4988805;28;20493;-62
2022/08/24 12:34:15;;;;;;;10.30;3.92;;;;;;;;;;4989127;28;20025;-63
2022/08/24 12:36:55;;;;;;;17.63;4.75;;;;;;;;;;4989123;28;20436;-63
2022/08/24 12:39:24;;;;;;;11.15;2.80;;;;;;;;;;4987767;28;20098;-63
2022/08/24 12:42:16;;;;;;;8.32;3.13;;;;;;;;;;4988919;28;20317;-63
2022/08/24 12:44:48;;;;;;;11.05;3.70;;;;;;;;;;4987271;28;20090;-62
2022/08/24 12:47:20;;;;;;;10.18;3.25;;;;;;;;;;4986632;28;20333;-62
2022/08/24 12:49:54;;;;;;;11.55;3.47;;;;;;;;;;4987696;28;20471;-62
2022/08/24 12:52:28;;;;;;;11.68;3.28;;;;;;;;;;4987131;28;20447;-62
2022/08/24 12:55:09;;;;;;;16.25;4.13;;;;;;;;;;4988961;28;20455;-62
2022/08/24 12:57:49;;;;;;;15.10;3.80;;;;;;;;;;4988575;28;20505;-63
2022/08/24 13:00:26;;;;;;;14.80;3.38;;;;;;;;;;4988600;28;20025;-63
2022/08/24 13:02:59;;;;;;;13.00;4.13;;;;;;;;;;4987773;28;20371;-62
2022/08/24 13:05:43;;;;;;;12.73;2.92;;;;;;;;;;4986976;28;20371;-63
2022/08/24 13:08:15;;;;;;;15.93;3.95;;;;;;;;;;4988703;28;20108;-62
2022/08/24 13:10:44;;;;;;;15.45;3.25;;;;;;;;;;4986762;28;20459;-63
2022/08/24 13:13:19;;;;;;;12.20;2.72;;;;;;;;;;4988240;28;20029;-62
2022/08/24 13:15:44;;;;;;;8.70;3.08;;;;;;;;;;4988276;28;20290;-62
2022/08/24 13:18:12;;;;;;;15.70;3.35;;;;;;;;;;4989513;28;20366;-62
2022/08/24 13:20:44;;;;;;;9.77;2.90;;;;;;;;;;4989008;28;20351;-63
2022/08/24 13:23:12;;;;;;;19.00;3.58;;;;;;;;;;4991056;28;20325;-62
2022/08/24 13:25:37;;;;;;;;;;;;;;;;;;4988809;28;20186;-63
2022/08/24 13:28:07;;;;;;;8.47;2.77;;;;;;;;;;4988585;28;19939;-62
2022/08/24 13:30:48;;;;;;;9.32;3.25;;;;;;;;;;4988060;28;20661;-63
2022/08/24 13:33:16;;;;;;;8.50;3.45;;;;;;;;;;4986909;28;20169;-63
2022/08/24 13:35:58;;;;;;;11.77;3.30;;;;;;;;;;4986664;28;20094;-63
2022/08/24 13:38:35;;;;;;;9.90;2.83;;;;;;;;;;4989234;28;20136;-63
2022/08/24 13:41:09;;;;;;;11.50;3.25;;;;;;;;;;4988156;28;20349;-63
2022/08/24 13:43:42;;;;;;;12.82;3.75;;;;;;;;;;4986687;28;20383;-63
2022/08/24 13:46:31;;;;;;;11.13;2.85;;;;;;;;;;4986180;28;20474;-62
2022/08/24 13:49:02;;;;;;;10.93;3.78;;;;;;;;;;4986610;28;20029;-62
2022/08/24 13:51:51;;;;;;;18.05;4.00;;;;;;;;;;4988151;28;20580;-62
2022/08/24 13:54:34;;;;;;;14.05;3.10;;;;;;;;;;4986945;28;20428;-62
2022/08/24 13:57:05;;;;;;;11.30;3.53;;;;;;;;;;4987112;28;20452;-62
2022/08/24 13:59:46;;;;;;;14.65;3.42;;;;;;;;;;4988245;28;20128;-63
2022/08/24 14:02:14;;;;;;;12.73;3.80;;;;;;;;;;4987877;28;20428;-63
2022/08/24 14:04:52;;;;;;;14.00;2.88;;;;;;;;;;4989317;28;20029;-62
2022/08/24 14:07:22;;;;;;;15.50;3.53;;;;;;;;;;4989830;28;20451;-62
2022/08/24 14:10:03;;;;;;;9.50;2.92;;;;;;;;;;4986353;28;20046;-63
2022/08/24 14:12:32;;;;;;;14.20;3.00;;;;;;;;;;4986219;28;20468;-62
2022/08/24 14:15:10;;;;;;;;;;;;;;;;;;4988283;28;20534;-63
2022/08/24 14:17:50;;;;;;;18.45;3.75;;;;;;;;;;4986337;28;20251;-63
2022/08/24 14:20:43;;;;;;;7.55;3.20;;;;;;;;;;4987744;28;20041;-62
2022/08/24 14:23:23;;;;;;;9.98;3.20;;;;;;;;;;4988178;28;20436;-63
2022/08/24 14:25:50;;;;;;;10.70;2.88;;;;;;;;;;4986495;28;20679;-62
2022/08/24 14:28:41;;;;;;;14.45;2.95;;;;;;;;;;4985992;28;20340;-63
2022/08/24 14:31:13;;;;;;;15.88;3.78;;;;;;;;;;4987988;28;20440;-62
2022/08/24 14:33:49;;;;;;;15.68;3.67;;;;;;;;;;4987592;28;20382;-62
2022/08/24 14:36:51;;;;;;;9.95;2.78;;;;;;;;;;4985314;28;20364;-63
2022/08/24 14:39:39;;;;;;;12.02;4.57;;;;;;;;;;4987283;28;20459;-63
2022/08/24 14:42:17;;;;;;;11.00;3.00;;;;;;;;;;4970822;28;20483;-65
2022/08/24 14:44:48;;;;;;;10.63;2.92;;;;;;;;;;4986141;28;20029;-62
2022/08/24 14:47:32;;;;;;;8.07;3.17;;;;;;;;;;4988668;28;20387;-63
2022/08/24 14:50:03;;;;;;;14.13;3.45;;;;;;;;;;4990519;28;20443;-62
2022/08/24 14:52:41;;;;;;;10.25;3.97;;;;;;;;;;4990874;28;20096;-62
2022/08/24 14:55:28;;;;;;;13.82;3.83;;;;;;;;;;4989138;28;20047;-63
2022/08/24 14:58:15;;;;;;;11.80;2.75;;;;;;;;;;4991781;28;20392;-62
2022/08/24 15:00:48;;;;;;;12.02;2.88;;;;;;;;;;4989141;28;20506;-63
2022/08/24 15:03:26;;;;;;;9.45;3.10;;;;;;;;;;4972820;28;20396;-62
2022/08/24 15:06:28;;;;;;;7.30;2.35;;;;;;;;;;4993041;28;20420;-63
2022/08/24 15:09:15;;;;;;;12.20;3.38;;;;;;;;;;4990287;28;20470;-62
2022/08/24 15:11:41;;;;;;;10.55;3.38;;;;;;;;;;4990345;28;20415;-62
2022/08/24 15:14:11;;;;;;;11.50;2.95;;;;;;;;;;4990329;28;20391;-63
2022/08/24 15:16:37;;;;;;;12.90;3.00;;;;;;;;;;4989181;28;20436;-63